sensor_id;sensor_type;location;lat;lon;timestamp;pressure;altitude;pressure_sealevel;temperature;humidity
70468;BME280;57934;51.532;7.684;2023-05-20T00:02:20;101074.50;;;12.32;nan
70468;BME280;57934;51.532;7.684;2023-05-20T00:04:46;101063.66;;;12.27;nan
70468;BME280;57934;51.532;7.684;2023-05-20T00:07:12;101067.31;;;12.26;nan
70468;BME280;57934;51.532;7.684;2023-05-20T00:09:38;101066.13;;;12.14;nan
70468;BME280;57934;51.532;7.684;2023-05-20T00:12:04;101056.75;;;12.11;nan
70468;BME280;57934;51.532;7.684;2023-05-20T00:14:30;101062.41;;;12.08;nan
70468;BME280;57934;51.532;7.684;2023-05-20T00:16:56;101062.69;;;11.99;nan
70468;BME280;57934;51.532;7.684;2023-05-20T00:19:22;101066.88;;;11.93;nan
70468;BME280;57934;51.532;7.684;2023-05-20T00:21:48;101066.97;;;12.00;nan
70468;BME280;57934;51.532;7.684;2023-05-20T00:24:14;101073.81;;;12.09;nan
70468;BME280;57934;51.532;7.684;2023-05-20T00:26:40;101076.09;;;11.97;nan
70468;BME280;57934;51.532;7.684;2023-05-20T00:29:06;101073.63;;;11.96;nan
70468;BME280;57934;51.532;7.684;2023-05-20T00:31:32;101078.31;;;11.70;nan
70468;BME280;57934;51.532;7.684;2023-05-20T00:33:58;101074.09;;;11.61;nan
70468;BME280;57934;51.532;7.684;2023-05-20T00:36:24;101068.09;;;11.53;nan
70468;BME280;57934;51.532;7.684;2023-05-20T00:38:50;101071.91;;;11.50;nan
70468;BME280;57934;51.532;7.684;2023-05-20T00:41:16;101070.28;;;11.49;nan
70468;BME280;57934;51.532;7.684;2023-05-20T00:43:42;101066.00;;;11.48;nan
70468;BME280;57934;51.532;7.684;2023-05-20T00:46:09;101069.91;;;11.52;nan
70468;BME280;57934;51.532;7.684;2023-05-20T00:48:39;101066.00;;;11.48;nan
70468;BME280;57934;51.532;7.684;2023-05-20T00:51:06;101065.63;;;11.51;nan
70468;BME280;57934;51.532;7.684;2023-05-20T00:53:33;101067.63;;;11.49;nan
70468;BME280;57934;51.532;7.684;2023-05-20T00:56:00;101068.66;;;11.48;nan
70468;BME280;57934;51.532;7.684;2023-05-20T00:58:26;101067.06;;;11.39;nan
70468;BME280;57934;51.532;7.684;2023-05-20T01:00:52;101057.88;;;11.35;nan
70468;BME280;57934;51.532;7.684;2023-05-20T01:03:19;101055.50;;;11.40;nan
70468;BME280;57934;51.532;7.684;2023-05-20T01:05:45;101049.75;;;11.36;nan
70468;BME280;57934;51.532;7.684;2023-05-20T01:08:11;101048.38;;;11.40;nan
70468;BME280;57934;51.532;7.684;2023-05-20T01:10:41;101043.66;;;11.36;nan
70468;BME280;57934;51.532;7.684;2023-05-20T01:13:14;101043.19;;;11.32;nan
70468;BME280;57934;51.532;7.684;2023-05-20T01:15:41;101051.22;;;11.39;nan
70468;BME280;57934;51.532;7.684;2023-05-20T01:18:09;101052.22;;;11.38;nan
70468;BME280;57934;51.532;7.684;2023-05-20T01:20:36;101044.94;;;11.40;nan
70468;BME280;57934;51.532;7.684;2023-05-20T01:23:02;101044.19;;;11.31;nan
70468;BME280;57934;51.532;7.684;2023-05-20T01:25:28;101042.84;;;11.35;nan
70468;BME280;57934;51.532;7.684;2023-05-20T01:27:56;101039.75;;;11.32;nan
70468;BME280;57934;51.532;7.684;2023-05-20T01:30:25;101042.56;;;11.30;nan
70468;BME280;57934;51.532;7.684;2023-05-20T01:33:00;101048.38;;;11.26;nan
70468;BME280;57934;51.532;7.684;2023-05-20T01:35:29;101044.44;;;11.21;nan
70468;BME280;57934;51.532;7.684;2023-05-20T01:37:56;101045.72;;;11.26;nan
70468;BME280;57934;51.532;7.684;2023-05-20T01:40:23;101043.75;;;11.28;nan
70468;BME280;57934;51.532;7.684;2023-05-20T01:42:51;101044.09;;;11.25;nan
70468;BME280;57934;51.532;7.684;2023-05-20T01:45:20;101039.75;;;11.09;nan
70468;BME280;57934;51.532;7.684;2023-05-20T01:47:46;101044.06;;;11.10;nan
70468;BME280;57934;51.532;7.684;2023-05-20T01:50:12;101029.97;;;11.17;nan
70468;BME280;57934;51.532;7.684;2023-05-20T01:52:38;101026.88;;;11.14;nan
70468;BME280;57934;51.532;7.684;2023-05-20T01:55:04;101023.34;;;10.98;nan
70468;BME280;57934;51.532;7.684;2023-05-20T01:57:30;101022.41;;;10.91;nan
70468;BME280;57934;51.532;7.684;2023-05-20T01:59:56;101021.94;;;10.88;nan
70468;BME280;57934;51.532;7.684;2023-05-20T02:02:22;101023.19;;;11.00;nan
70468;BME280;57934;51.532;7.684;2023-05-20T02:04:50;101031.66;;;10.95;nan
70468;BME280;57934;51.532;7.684;2023-05-20T02:07:17;101030.44;;;10.98;nan
70468;BME280;57934;51.532;7.684;2023-05-20T02:09:45;101032.75;;;11.01;nan
70468;BME280;57934;51.532;7.684;2023-05-20T02:12:11;101029.25;;;10.86;nan
70468;BME280;57934;51.532;7.684;2023-05-20T02:14:42;101025.06;;;10.68;nan
70468;BME280;57934;51.532;7.684;2023-05-20T02:17:08;101024.59;;;10.65;nan
70468;BME280;57934;51.532;7.684;2023-05-20T02:19:34;101032.25;;;10.51;nan
70468;BME280;57934;51.532;7.684;2023-05-20T02:22:00;101031.63;;;10.49;nan
70468;BME280;57934;51.532;7.684;2023-05-20T02:24:26;101036.59;;;10.44;nan
70468;BME280;57934;51.532;7.684;2023-05-20T02:26:53;101037.28;;;10.38;nan
70468;BME280;57934;51.532;7.684;2023-05-20T02:29:20;101039.31;;;10.28;nan
70468;BME280;57934;51.532;7.684;2023-05-20T02:31:49;101051.28;;;10.39;nan
70468;BME280;57934;51.532;7.684;2023-05-20T02:34:16;101049.66;;;10.38;nan
70468;BME280;57934;51.532;7.684;2023-05-20T02:36:42;101051.34;;;10.22;nan
70468;BME280;57934;51.532;7.684;2023-05-20T02:39:08;101055.47;;;10.25;nan
70468;BME280;57934;51.532;7.684;2023-05-20T02:41:35;101048.72;;;10.22;nan
70468;BME280;57934;51.532;7.684;2023-05-20T02:44:02;101057.25;;;10.24;nan
70468;BME280;57934;51.532;7.684;2023-05-20T02:46:30;101046.72;;;10.24;nan
70468;BME280;57934;51.532;7.684;2023-05-20T02:48:56;101048.31;;;10.42;nan
70468;BME280;57934;51.532;7.684;2023-05-20T02:51:22;101044.09;;;10.33;nan
70468;BME280;57934;51.532;7.684;2023-05-20T02:53:48;101043.44;;;10.22;nan
70468;BME280;57934;51.532;7.684;2023-05-20T02:56:15;101038.16;;;10.22;nan
70468;BME280;57934;51.532;7.684;2023-05-20T02:58:41;101040.97;;;10.29;nan
70468;BME280;57934;51.532;7.684;2023-05-20T03:01:07;101048.72;;;10.22;nan
70468;BME280;57934;51.532;7.684;2023-05-20T03:03:33;101039.50;;;10.26;nan
70468;BME280;57934;51.532;7.684;2023-05-20T03:05:59;101034.03;;;10.28;nan
70468;BME280;57934;51.532;7.684;2023-05-20T03:08:24;101029.09;;;10.25;nan
70468;BME280;57934;51.532;7.684;2023-05-20T03:10:51;101040.00;;;10.22;nan
70468;BME280;57934;51.532;7.684;2023-05-20T03:13:16;101042.78;;;10.20;nan
70468;BME280;57934;51.532;7.684;2023-05-20T03:15:43;101037.34;;;10.22;nan
70468;BME280;57934;51.532;7.684;2023-05-20T03:18:10;101036.84;;;10.26;nan
70468;BME280;57934;51.532;7.684;2023-05-20T03:20:40;101035.03;;;10.27;nan
70468;BME280;57934;51.532;7.684;2023-05-20T03:23:07;101033.53;;;10.24;nan
70468;BME280;57934;51.532;7.684;2023-05-20T03:25:36;101034.53;;;10.23;nan
70468;BME280;57934;51.532;7.684;2023-05-20T03:28:03;101032.09;;;10.14;nan
70468;BME280;57934;51.532;7.684;2023-05-20T03:30:29;101033.16;;;10.04;nan
70468;BME280;57934;51.532;7.684;2023-05-20T03:32:57;101033.91;;;10.13;nan
70468;BME280;57934;51.532;7.684;2023-05-20T03:35:23;101024.91;;;10.08;nan
70468;BME280;57934;51.532;7.684;2023-05-20T03:37:50;101020.41;;;10.16;nan
70468;BME280;57934;51.532;7.684;2023-05-20T03:40:18;101030.50;;;10.04;nan
70468;BME280;57934;51.532;7.684;2023-05-20T03:42:47;101020.94;;;10.03;nan
70468;BME280;57934;51.532;7.684;2023-05-20T03:45:16;101012.06;;;10.04;nan
70468;BME280;57934;51.532;7.684;2023-05-20T03:47:58;101013.03;;;10.12;nan
70468;BME280;57934;51.532;7.684;2023-05-20T03:50:24;101021.75;;;10.12;nan
70468;BME280;57934;51.532;7.684;2023-05-20T03:52:50;101022.16;;;10.24;nan
70468;BME280;57934;51.532;7.684;2023-05-20T03:55:18;101020.53;;;10.23;nan
70468;BME280;57934;51.532;7.684;2023-05-20T03:57:45;101020.53;;;10.23;nan
70468;BME280;57934;51.532;7.684;2023-05-20T04:00:12;101019.72;;;10.22;nan
70468;BME280;57934;51.532;7.684;2023-05-20T04:02:42;101015.09;;;10.33;nan
70468;BME280;57934;51.532;7.684;2023-05-20T04:05:09;101011.63;;;10.32;nan
70468;BME280;57934;51.532;7.684;2023-05-20T04:07:37;101009.81;;;10.33;nan
70468;BME280;57934;51.532;7.684;2023-05-20T04:10:05;101009.41;;;10.44;nan
70468;BME280;57934;51.532;7.684;2023-05-20T04:12:31;101009.81;;;10.56;nan
70468;BME280;57934;51.532;7.684;2023-05-20T04:14:58;101008.66;;;10.58;nan
70468;BME280;57934;51.532;7.684;2023-05-20T04:17:28;101014.59;;;10.60;nan
70468;BME280;57934;51.532;7.684;2023-05-20T04:19:57;101014.22;;;10.63;nan
70468;BME280;57934;51.532;7.684;2023-05-20T04:22:27;101015.53;;;10.67;nan
70468;BME280;57934;51.532;7.684;2023-05-20T04:24:53;101015.41;;;10.61;nan
70468;BME280;57934;51.532;7.684;2023-05-20T04:27:19;101014.34;;;10.70;nan
70468;BME280;57934;51.532;7.684;2023-05-20T04:29:46;101016.97;;;10.70;nan
70468;BME280;57934;51.532;7.684;2023-05-20T04:32:16;101009.13;;;10.62;nan
70468;BME280;57934;51.532;7.684;2023-05-20T04:34:43;101013.38;;;10.71;nan
70468;BME280;57934;51.532;7.684;2023-05-20T04:37:13;101012.78;;;10.61;nan
70468;BME280;57934;51.532;7.684;2023-05-20T04:39:40;101007.97;;;10.64;nan
70468;BME280;57934;51.532;7.684;2023-05-20T04:42:11;101003.78;;;10.70;nan
70468;BME280;57934;51.532;7.684;2023-05-20T04:44:38;101011.69;;;10.70;nan
70468;BME280;57934;51.532;7.684;2023-05-20T04:47:04;101012.91;;;10.67;nan
70468;BME280;57934;51.532;7.684;2023-05-20T04:49:32;101017.63;;;10.72;nan
70468;BME280;57934;51.532;7.684;2023-05-20T04:51:59;101010.59;;;10.87;nan
70468;BME280;57934;51.532;7.684;2023-05-20T04:54:25;101011.94;;;10.83;nan
70468;BME280;57934;51.532;7.684;2023-05-20T04:56:51;101005.56;;;10.78;nan
70468;BME280;57934;51.532;7.684;2023-05-20T04:59:18;101008.47;;;10.83;nan
70468;BME280;57934;51.532;7.684;2023-05-20T05:01:44;101004.84;;;10.84;nan
70468;BME280;57934;51.532;7.684;2023-05-20T05:04:10;101007.06;;;10.95;nan
70468;BME280;57934;51.532;7.684;2023-05-20T05:06:36;101006.13;;;10.88;nan
70468;BME280;57934;51.532;7.684;2023-05-20T05:09:02;101011.13;;;10.83;nan
70468;BME280;57934;51.532;7.684;2023-05-20T05:11:29;101010.06;;;10.92;nan
70468;BME280;57934;51.532;7.684;2023-05-20T05:13:55;101016.09;;;11.01;nan
70468;BME280;57934;51.532;7.684;2023-05-20T05:16:24;101013.91;;;11.04;nan
70468;BME280;57934;51.532;7.684;2023-05-20T05:18:50;101008.97;;;11.01;nan
70468;BME280;57934;51.532;7.684;2023-05-20T05:21:16;101017.22;;;11.06;nan
70468;BME280;57934;51.532;7.684;2023-05-20T05:23:43;101010.56;;;11.10;nan
70468;BME280;57934;51.532;7.684;2023-05-20T05:26:10;101010.03;;;11.15;nan
70468;BME280;57934;51.532;7.684;2023-05-20T05:28:36;101009.13;;;11.22;nan
70468;BME280;57934;51.532;7.684;2023-05-20T05:31:02;101018.50;;;11.25;nan
70468;BME280;57934;51.532;7.684;2023-05-20T05:33:29;101015.78;;;11.33;nan
70468;BME280;57934;51.532;7.684;2023-05-20T05:35:55;101008.34;;;11.52;nan
70468;BME280;57934;51.532;7.684;2023-05-20T05:38:24;101000.97;;;11.47;nan
70468;BME280;57934;51.532;7.684;2023-05-20T05:40:50;101013.28;;;11.69;nan
70468;BME280;57934;51.532;7.684;2023-05-20T05:43:16;101015.25;;;11.82;nan
70468;BME280;57934;51.532;7.684;2023-05-20T05:45:44;101001.91;;;11.84;nan
70468;BME280;57934;51.532;7.684;2023-05-20T05:48:10;101004.91;;;11.96;nan
70468;BME280;57934;51.532;7.684;2023-05-20T05:50:36;100999.16;;;11.92;nan
70468;BME280;57934;51.532;7.684;2023-05-20T05:53:02;101002.16;;;11.74;nan
70468;BME280;57934;51.532;7.684;2023-05-20T05:55:29;101001.22;;;11.82;nan
70468;BME280;57934;51.532;7.684;2023-05-20T05:57:55;101006.06;;;11.63;nan
70468;BME280;57934;51.532;7.684;2023-05-20T06:00:21;101006.63;;;11.74;nan
70468;BME280;57934;51.532;7.684;2023-05-20T06:02:48;101008.66;;;11.86;nan
70468;BME280;57934;51.532;7.684;2023-05-20T06:05:26;101009.38;;;11.95;nan
70468;BME280;57934;51.532;7.684;2023-05-20T06:07:53;101001.19;;;12.26;nan
70468;BME280;57934;51.532;7.684;2023-05-20T06:10:19;101004.75;;;12.33;nan
70468;BME280;57934;51.532;7.684;2023-05-20T06:12:45;100997.63;;;12.34;nan
70468;BME280;57934;51.532;7.684;2023-05-20T06:15:11;100994.84;;;12.42;nan
70468;BME280;57934;51.532;7.684;2023-05-20T06:17:38;100988.44;;;12.51;nan
70468;BME280;57934;51.532;7.684;2023-05-20T06:20:04;100986.97;;;12.70;nan
70468;BME280;57934;51.532;7.684;2023-05-20T06:22:31;101001.00;;;12.64;nan
70468;BME280;57934;51.532;7.684;2023-05-20T06:24:57;100990.00;;;12.46;nan
70468;BME280;57934;51.532;7.684;2023-05-20T06:27:25;100994.03;;;12.41;nan
70468;BME280;57934;51.532;7.684;2023-05-20T06:29:52;100994.09;;;12.48;nan
70468;BME280;57934;51.532;7.684;2023-05-20T06:32:18;100991.66;;;12.68;nan
70468;BME280;57934;51.532;7.684;2023-05-20T06:34:44;100989.13;;;12.60;nan
70468;BME280;57934;51.532;7.684;2023-05-20T06:37:11;100992.09;;;12.50;nan
70468;BME280;57934;51.532;7.684;2023-05-20T06:39:37;100979.16;;;12.19;nan
70468;BME280;57934;51.532;7.684;2023-05-20T06:42:03;100981.38;;;12.37;nan
70468;BME280;57934;51.532;7.684;2023-05-20T06:44:34;100980.50;;;12.51;nan
70468;BME280;57934;51.532;7.684;2023-05-20T06:47:13;100978.31;;;12.55;nan
70468;BME280;57934;51.532;7.684;2023-05-20T06:49:41;100972.78;;;12.50;nan
70468;BME280;57934;51.532;7.684;2023-05-20T06:52:07;100975.16;;;12.45;nan
70468;BME280;57934;51.532;7.684;2023-05-20T06:54:33;100977.63;;;12.68;nan
70468;BME280;57934;51.532;7.684;2023-05-20T06:57:07;100979.03;;;12.92;nan
70468;BME280;57934;51.532;7.684;2023-05-20T06:59:34;100972.41;;;12.81;nan
70468;BME280;57934;51.532;7.684;2023-05-20T07:02:02;100974.63;;;12.77;nan
70468;BME280;57934;51.532;7.684;2023-05-20T07:04:28;100969.25;;;12.64;nan
70468;BME280;57934;51.532;7.684;2023-05-20T07:06:55;100968.28;;;12.72;nan
70468;BME280;57934;51.532;7.684;2023-05-20T07:09:21;100968.91;;;12.95;nan
70468;BME280;57934;51.532;7.684;2023-05-20T07:11:47;100970.63;;;13.09;nan
70468;BME280;57934;51.532;7.684;2023-05-20T07:14:13;100965.53;;;13.36;nan
70468;BME280;57934;51.532;7.684;2023-05-20T07:16:39;100968.75;;;13.31;nan
70468;BME280;57934;51.532;7.684;2023-05-20T07:19:05;100966.38;;;13.43;nan
70468;BME280;57934;51.532;7.684;2023-05-20T07:21:32;100971.75;;;13.56;nan
70468;BME280;57934;51.532;7.684;2023-05-20T07:24:12;100969.41;;;13.75;nan
70468;BME280;57934;51.532;7.684;2023-05-20T07:26:38;100971.50;;;13.45;nan
70468;BME280;57934;51.532;7.684;2023-05-20T07:29:05;100962.91;;;13.77;nan
70468;BME280;57934;51.532;7.684;2023-05-20T07:31:31;100961.00;;;13.65;nan
70468;BME280;57934;51.532;7.684;2023-05-20T07:33:58;100959.09;;;14.00;nan
70468;BME280;57934;51.532;7.684;2023-05-20T07:36:26;100955.22;;;13.96;nan
70468;BME280;57934;51.532;7.684;2023-05-20T07:38:53;100951.63;;;13.62;nan
70468;BME280;57934;51.532;7.684;2023-05-20T07:41:19;100946.34;;;13.75;nan
70468;BME280;57934;51.532;7.684;2023-05-20T07:43:45;100940.25;;;13.75;nan
70468;BME280;57934;51.532;7.684;2023-05-20T07:46:12;100948.22;;;13.81;nan
70468;BME280;57934;51.532;7.684;2023-05-20T07:48:39;100951.97;;;13.52;nan
70468;BME280;57934;51.532;7.684;2023-05-20T07:51:05;100947.56;;;13.66;nan
70468;BME280;57934;51.532;7.684;2023-05-20T07:53:30;100949.94;;;14.02;nan
70468;BME280;57934;51.532;7.684;2023-05-20T07:55:57;100950.56;;;13.56;nan
70468;BME280;57934;51.532;7.684;2023-05-20T07:58:26;100950.88;;;13.40;nan
70468;BME280;57934;51.532;7.684;2023-05-20T08:00:53;100944.19;;;13.51;nan
70468;BME280;57934;51.532;7.684;2023-05-20T08:03:19;100953.09;;;13.78;nan
70468;BME280;57934;51.532;7.684;2023-05-20T08:06:10;100951.19;;;13.58;nan
70468;BME280;57934;51.532;7.684;2023-05-20T08:08:35;100957.75;;;13.28;nan
70468;BME280;57934;51.532;7.684;2023-05-20T08:11:08;100954.50;;;13.32;nan
70468;BME280;57934;51.532;7.684;2023-05-20T08:13:36;100956.28;;;13.60;nan
70468;BME280;57934;51.532;7.684;2023-05-20T08:16:03;100953.84;;;13.58;nan
70468;BME280;57934;51.532;7.684;2023-05-20T08:18:31;100947.69;;;13.51;nan
70468;BME280;57934;51.532;7.684;2023-05-20T08:20:58;100948.41;;;13.73;nan
70468;BME280;57934;51.532;7.684;2023-05-20T08:23:25;100953.69;;;13.73;nan
70468;BME280;57934;51.532;7.684;2023-05-20T08:25:51;100955.19;;;13.89;nan
70468;BME280;57934;51.532;7.684;2023-05-20T08:28:19;100949.06;;;13.89;nan
70468;BME280;57934;51.532;7.684;2023-05-20T08:30:46;100948.94;;;14.10;nan
70468;BME280;57934;51.532;7.684;2023-05-20T08:33:14;100946.03;;;13.92;nan
70468;BME280;57934;51.532;7.684;2023-05-20T08:35:40;100944.44;;;14.04;nan
70468;BME280;57934;51.532;7.684;2023-05-20T08:38:06;100950.78;;;14.16;nan
70468;BME280;57934;51.532;7.684;2023-05-20T08:40:35;100946.84;;;13.99;nan
70468;BME280;57934;51.532;7.684;2023-05-20T08:43:01;100949.81;;;14.37;nan
70468;BME280;57934;51.532;7.684;2023-05-20T08:45:30;100954.28;;;14.23;nan
70468;BME280;57934;51.532;7.684;2023-05-20T08:48:00;100957.56;;;14.25;nan
70468;BME280;57934;51.532;7.684;2023-05-20T08:50:27;100946.34;;;14.30;nan
70468;BME280;57934;51.532;7.684;2023-05-20T08:52:53;100945.53;;;14.29;nan
70468;BME280;57934;51.532;7.684;2023-05-20T08:55:24;100955.69;;;14.19;nan
70468;BME280;57934;51.532;7.684;2023-05-20T08:57:54;100949.41;;;14.40;nan
70468;BME280;57934;51.532;7.684;2023-05-20T09:00:21;100948.22;;;14.63;nan
70468;BME280;57934;51.532;7.684;2023-05-20T09:02:54;100949.06;;;14.70;nan
70468;BME280;57934;51.532;7.684;2023-05-20T09:05:21;100952.94;;;14.74;nan
70468;BME280;57934;51.532;7.684;2023-05-20T09:07:47;100947.22;;;14.84;nan
70468;BME280;57934;51.532;7.684;2023-05-20T09:10:14;100945.19;;;14.92;nan
70468;BME280;57934;51.532;7.684;2023-05-20T09:12:40;100937.41;;;14.91;nan
70468;BME280;57934;51.532;7.684;2023-05-20T09:15:07;100944.78;;;14.95;nan
70468;BME280;57934;51.532;7.684;2023-05-20T09:17:37;100934.78;;;14.58;nan
70468;BME280;57934;51.532;7.684;2023-05-20T09:20:08;100938.03;;;14.79;nan
70468;BME280;57934;51.532;7.684;2023-05-20T09:22:34;100934.56;;;14.86;nan
70468;BME280;57934;51.532;7.684;2023-05-20T09:25:00;100945.59;;;14.89;nan
70468;BME280;57934;51.532;7.684;2023-05-20T09:27:26;100945.97;;;15.13;nan
70468;BME280;57934;51.532;7.684;2023-05-20T09:29:52;100933.53;;;15.07;nan
70468;BME280;57934;51.532;7.684;2023-05-20T09:32:20;100936.19;;;15.13;nan
70468;BME280;57934;51.532;7.684;2023-05-20T09:34:48;100937.56;;;15.22;nan
70468;BME280;57934;51.532;7.684;2023-05-20T09:37:17;100935.31;;;15.26;nan
70468;BME280;57934;51.532;7.684;2023-05-20T09:39:56;100937.38;;;15.24;nan
70468;BME280;57934;51.532;7.684;2023-05-20T09:42:28;100935.44;;;15.58;nan
70468;BME280;57934;51.532;7.684;2023-05-20T09:44:55;100940.81;;;15.44;nan
70468;BME280;57934;51.532;7.684;2023-05-20T09:47:23;100941.88;;;15.17;nan
70468;BME280;57934;51.532;7.684;2023-05-20T09:49:51;100935.03;;;15.47;nan
70468;BME280;57934;51.532;7.684;2023-05-20T09:52:17;100943.25;;;15.39;nan
70468;BME280;57934;51.532;7.684;2023-05-20T09:54:44;100938.97;;;15.45;nan
70468;BME280;57934;51.532;7.684;2023-05-20T09:57:11;100926.91;;;16.01;nan
70468;BME280;57934;51.532;7.684;2023-05-20T09:59:39;100925.25;;;15.99;nan
70468;BME280;57934;51.532;7.684;2023-05-20T10:02:06;100923.91;;;16.22;nan
70468;BME280;57934;51.532;7.684;2023-05-20T10:04:34;100918.03;;;16.38;nan
70468;BME280;57934;51.532;7.684;2023-05-20T10:09:48;100913.44;;;16.52;nan
70468;BME280;57934;51.532;7.684;2023-05-20T10:17:54;100901.81;;;17.70;nan
70468;BME280;57934;51.532;7.684;2023-05-20T10:20:23;100899.84;;;18.38;nan
70468;BME280;57934;51.532;7.684;2023-05-20T10:22:56;100894.38;;;17.72;nan
70468;BME280;57934;51.532;7.684;2023-05-20T10:25:25;100883.13;;;17.88;nan
70468;BME280;57934;51.532;7.684;2023-05-20T10:27:51;100884.78;;;18.55;nan
70468;BME280;57934;51.532;7.684;2023-05-20T10:30:18;100886.59;;;19.48;nan
70468;BME280;57934;51.532;7.684;2023-05-20T10:32:52;100887.44;;;19.25;nan
70468;BME280;57934;51.532;7.684;2023-05-20T10:35:23;100881.47;;;19.87;nan
70468;BME280;57934;51.532;7.684;2023-05-20T10:37:53;100874.13;;;20.11;nan
70468;BME280;57934;51.532;7.684;2023-05-20T10:40:21;100871.19;;;19.67;nan
70468;BME280;57934;51.532;7.684;2023-05-20T10:42:47;100871.69;;;19.52;nan
70468;BME280;57934;51.532;7.684;2023-05-20T10:45:27;100865.19;;;20.22;nan
70468;BME280;57934;51.532;7.684;2023-05-20T10:47:57;100856.09;;;21.57;nan
70468;BME280;57934;51.532;7.684;2023-05-20T10:50:34;100857.84;;;21.24;nan
70468;BME280;57934;51.532;7.684;2023-05-20T10:53:11;100864.25;;;20.00;nan
70468;BME280;57934;51.532;7.684;2023-05-20T10:55:38;100859.16;;;20.32;nan
70468;BME280;57934;51.532;7.684;2023-05-20T10:58:05;100863.41;;;19.66;nan
70468;BME280;57934;51.532;7.684;2023-05-20T11:00:34;100863.72;;;19.58;nan
70468;BME280;57934;51.532;7.684;2023-05-20T11:03:01;100855.72;;;19.17;nan
70468;BME280;57934;51.532;7.684;2023-05-20T11:05:29;100856.69;;;18.64;nan
70468;BME280;57934;51.532;7.684;2023-05-20T11:08:03;100855.19;;;18.80;nan
70468;BME280;57934;51.532;7.684;2023-05-20T11:10:29;100844.06;;;19.35;nan
70468;BME280;57934;51.532;7.684;2023-05-20T11:12:56;100845.81;;;19.29;nan
70468;BME280;57934;51.532;7.684;2023-05-20T11:15:22;100841.72;;;19.39;nan
70468;BME280;57934;51.532;7.684;2023-05-20T11:17:56;100848.28;;;19.48;nan
70468;BME280;57934;51.532;7.684;2023-05-20T11:20:24;100859.50;;;19.45;nan
70468;BME280;57934;51.532;7.684;2023-05-20T11:22:51;100854.25;;;18.98;nan
70468;BME280;57934;51.532;7.684;2023-05-20T11:25:18;100845.75;;;19.01;nan
70468;BME280;57934;51.532;7.684;2023-05-20T11:27:44;100841.00;;;19.43;nan
70468;BME280;57934;51.532;7.684;2023-05-20T11:30:12;100840.91;;;19.26;nan
70468;BME280;57934;51.532;7.684;2023-05-20T11:32:43;100840.06;;;18.97;nan
70468;BME280;57934;51.532;7.684;2023-05-20T11:35:21;100834.63;;;19.33;nan
70468;BME280;57934;51.532;7.684;2023-05-20T11:37:53;100826.00;;;19.42;nan
70468;BME280;57934;51.532;7.684;2023-05-20T11:40:23;100826.59;;;19.61;nan
70468;BME280;57934;51.532;7.684;2023-05-20T11:42:54;100824.28;;;18.96;nan
70468;BME280;57934;51.532;7.684;2023-05-20T11:45:21;100829.16;;;18.40;nan
70468;BME280;57934;51.532;7.684;2023-05-20T11:48:00;100820.75;;;19.07;nan
70468;BME280;57934;51.532;7.684;2023-05-20T11:50:26;100817.53;;;19.34;nan
70468;BME280;57934;51.532;7.684;2023-05-20T11:52:59;100815.56;;;19.58;nan
70468;BME280;57934;51.532;7.684;2023-05-20T11:55:27;100816.97;;;19.60;nan
70468;BME280;57934;51.532;7.684;2023-05-20T11:57:53;100805.06;;;20.13;nan
70468;BME280;57934;51.532;7.684;2023-05-20T12:00:22;100804.03;;;19.69;nan
70468;BME280;57934;51.532;7.684;2023-05-20T12:02:48;100804.41;;;19.61;nan
70468;BME280;57934;51.532;7.684;2023-05-20T12:05:14;100811.28;;;19.28;nan
70468;BME280;57934;51.532;7.684;2023-05-20T12:07:41;100802.00;;;19.19;nan
70468;BME280;57934;51.532;7.684;2023-05-20T12:10:07;100801.56;;;19.10;nan
70468;BME280;57934;51.532;7.684;2023-05-20T12:12:34;100797.31;;;19.38;nan
70468;BME280;57934;51.532;7.684;2023-05-20T12:15:05;100797.63;;;19.41;nan
70468;BME280;57934;51.532;7.684;2023-05-20T12:17:44;100804.94;;;19.17;nan
70468;BME280;57934;51.532;7.684;2023-05-20T12:20:12;100800.78;;;18.98;nan
70468;BME280;57934;51.532;7.684;2023-05-20T12:22:39;100801.88;;;18.50;nan
70468;BME280;57934;51.532;7.684;2023-05-20T12:25:05;100806.72;;;19.00;nan
70468;BME280;57934;51.532;7.684;2023-05-20T12:27:31;100795.31;;;19.04;nan
70468;BME280;57934;51.532;7.684;2023-05-20T12:29:58;100800.69;;;18.93;nan
70468;BME280;57934;51.532;7.684;2023-05-20T12:32:24;100805.22;;;18.33;nan
70468;BME280;57934;51.532;7.684;2023-05-20T12:34:50;100798.94;;;18.16;nan
70468;BME280;57934;51.532;7.684;2023-05-20T12:37:16;100801.03;;;18.38;nan
70468;BME280;57934;51.532;7.684;2023-05-20T12:39:42;100799.75;;;18.28;nan
70468;BME280;57934;51.532;7.684;2023-05-20T12:42:08;100801.03;;;18.49;nan
70468;BME280;57934;51.532;7.684;2023-05-20T12:44:34;100789.78;;;18.35;nan
70468;BME280;57934;51.532;7.684;2023-05-20T12:47:00;100787.94;;;18.71;nan
70468;BME280;57934;51.532;7.684;2023-05-20T12:49:26;100788.25;;;18.16;nan
70468;BME280;57934;51.532;7.684;2023-05-20T12:51:52;100786.44;;;18.40;nan
70468;BME280;57934;51.532;7.684;2023-05-20T12:54:18;100782.59;;;18.71;nan
70468;BME280;57934;51.532;7.684;2023-05-20T12:56:44;100783.03;;;18.68;nan
70468;BME280;57934;51.532;7.684;2023-05-20T12:59:13;100782.84;;;18.46;nan
70468;BME280;57934;51.532;7.684;2023-05-20T13:01:39;100780.16;;;18.34;nan
70468;BME280;57934;51.532;7.684;2023-05-20T13:04:05;100784.44;;;18.35;nan
70468;BME280;57934;51.532;7.684;2023-05-20T13:06:33;100772.03;;;18.41;nan
70468;BME280;57934;51.532;7.684;2023-05-20T13:08:59;100769.34;;;18.41;nan
70468;BME280;57934;51.532;7.684;2023-05-20T13:11:25;100772.00;;;18.18;nan
70468;BME280;57934;51.532;7.684;2023-05-20T13:13:53;100770.75;;;18.20;nan
70468;BME280;57934;51.532;7.684;2023-05-20T13:16:19;100765.97;;;18.10;nan
70468;BME280;57934;51.532;7.684;2023-05-20T13:18:45;100760.63;;;18.10;nan
70468;BME280;57934;51.532;7.684;2023-05-20T13:21:12;100759.50;;;18.18;nan